CheckWX is a tool to help pilots better visualize weather data.  It is not intended as a substitute for an official pre-flight weather briefing.

08:47:05 UTC

LJCE TAF
Cerklje Airport
Slovenia
TAF LJCE 180800Z 1809/1818 26005KT 9999 SCT040 TEMPO 1809/1815 25010KT BKN040

Oct-18@
09:00 UTC

Oct-18 @ 09:00 UTC

Oct-18@
18:00 UTC

Oct-18 @ 18:00 UTC

TAF LJCE 180800Z 1809/1818 26005KT 9999 SCT040
Wind
  • 260° at 5 KTS
Cloud Levels
  • Scattered at 4,000' AGL

Oct-18@
09:00 UTC

Oct-18 @ 09:00 UTC

Oct-18@
15:00 UTC

Oct-18 @ 15:00 UTC

TEMPO 1809/1815 25010KT BKN040

Temporary

Temporary Changes expected for less than half the time period

Wind
  • 250° at 10 KTS
Cloud Levels
  • Broken at 4,000' AGL